• Join FlightAware (Why Join?)
  • Login
  • US Flag 
11:06PM EST


 

Airport Tracker/Info


-or-


 

Live Flight TrackerFlight Track Log ✈ XOJ793 ✈ 09-Aug-2014 ✈ KOPF - TIST / STT

Flight Track Log - Related Links

Times and Time Zones

All times are in EDT time to prevent confusion due to time zone crossing. See the XOJ793 flight status page for this flight to view local times or setup timezone preferences in your user account.

Time Position Orientation Groundspeed Altitude Reporting Facility
EDT Latitude Longitude Course Direction KTS MPH feet Rate Location/Type
07:08AM 25.9131 -80.2600 86° East 181 208 400  Level Miami Center
07:09AM 25.9161 -80.2117 86° East 217 250 2,300 2,034 Climbing Miami Center
07:09AM 25.9181 -80.2081 59° Northeast 198 228 2,400 3,541 Climbing Miami Center
07:10AM 25.9247 -80.1381 84° East 237 273 5,900 3,750 Climbing Miami Center
07:11AM 25.9361 -80.0581 81° East 266 306 9,400 3,069 Climbing Miami Center
07:12AM 25.9467 -79.9700 82° East 282 325 12,600 2,519 Climbing Miami Center
07:13AM 25.9131 -79.8806 113° Southeast 326 375 14,900 1,636 Climbing Miami Center
07:14AM 25.8544 -79.7844 124° Southeast 381 438 15,900 595 Climbing Miami Center
07:15AM 25.7897 -79.6714 122° Southeast 430 495 16,100 1,131 Climbing Miami Center
07:16AM 25.7264 -79.5658 124° Southeast 413 475 18,200 1,636 Climbing Miami Center
07:17AM 25.6653 -79.4639 124° Southeast 397 457 19,400 1,190 Climbing Miami Center
07:18AM 25.5922 -79.3372 123° Southeast 406 467 20,600 1,082 Climbing Miami Center
07:19AM 25.5394 -79.2233 117° Southeast 414 476 21,600 984 Climbing Miami Center
07:21AM 25.4928 -79.1067 114° Southeast 415 478 22,600 984 Climbing Miami Center
07:22AM 25.4356 -78.9919 119° Southeast 423 487 23,600 1,033 Climbing Miami Center
07:23AM 25.3772 -78.8647 117° Southeast 427 491 24,700 1,091 Climbing Miami Center
07:24AM 25.3169 -78.7489 120° Southeast 430 495 25,800 1,041 Climbing Miami Center
07:25AM 25.2603 -78.6303 118° Southeast 434 499 26,800 984 Climbing Miami Center
07:26AM 25.2011 -78.5117 119° Southeast 439 505 27,800 984 Climbing Miami Center
07:27AM 25.1425 -78.3917 118° Southeast 441 507 28,800 984 Climbing Miami Center
07:28AM 25.0831 -78.2706 118° Southeast 447 514 29,800 984 Climbing Miami Center
07:29AM 25.0214 -78.1481 119° Southeast 452 520 30,800 1,033 Climbing Miami Center
07:30AM 24.9533 -78.0136 119° Southeast 457 526 31,900 1,033 Climbing Miami Center
07:31AM 24.8914 -77.8886 119° Southeast 463 533 32,900 984 Climbing Miami Center
07:32AM 24.8269 -77.7628 119° Southeast 468 539 33,900 984 Climbing Miami Center
07:33AM 24.7628 -77.6350 119° Southeast 476 548 34,900 984 Climbing Miami Center
07:34AM 24.6986 -77.5064 119° Southeast 480 552 35,900 934 Climbing Miami Center
07:35AM 24.6269 -77.3633 119° Southeast 483 556 36,800 787 Climbing Miami Center
07:36AM 24.5600 -77.2331 119° Southeast 490 564 37,500 738 Climbing Miami Center
07:37AM 24.4942 -77.1025 119° Southeast 490 564 38,300 738 Climbing Miami Center
07:38AM 24.4278 -76.9708 119° Southeast 490 564 39,000 738 Climbing Miami Center
07:39AM 24.3608 -76.8411 120° Southeast 490 564 39,800 738 Climbing Miami Center
07:40AM 24.2944 -76.7103 119° Southeast 490 564 40,500 590 Climbing Miami Center
07:41AM 24.2347 -76.5911 119° Southeast 490 564 41,000 541 Climbing Miami Center
07:42AM 24.1531 -76.4350 120° Southeast 490 564 41,600 492 Climbing Miami Center
07:43AM 24.0864 -76.3039 119° Southeast 491 565 42,000 393 Climbing Miami Center
07:44AM 24.0200 -76.1750 119° Southeast 489 563 42,400 443 Climbing Miami Center
07:45AM 23.9536 -76.0464 119° Southeast 488 562 42,900 443 Climbing Miami Center
07:46AM 23.8875 -75.9194 120° Southeast 482 555 43,300 439 Climbing Miami Center
07:47AM 23.8219 -75.7925 119° Southeast 480 552 43,800 439 Climbing Miami Center
07:48AM 23.7569 -75.6675 120° Southeast 471 542 44,200 344 Climbing Miami Center
07:49AM 23.6914 -75.5422 120° Southeast 471 542 44,500 295 Climbing Miami Center
07:50AM 23.6253 -75.4189 120° Southeast 469 540 44,800 246 Climbing Miami Center
07:51AM 23.5611 -75.2969 120° Southeast 463 533 45,000 98 Climbing Miami Center
07:52AM 23.4967 -75.1750 120° Southeast 463 533 45,000  Level Miami Center
07:53AM 23.4300 -75.0533 121° Southeast 462 532 45,000  Level Miami Center
07:54AM 23.3647 -74.9300 120° Southeast 466 536 45,000  Level Miami Center
07:55AM 23.3003 -74.8061 120° Southeast 467 537 45,000  Level Miami Center
07:56AM 23.2319 -74.6839 121° Southeast 469 540 45,000  Level Miami Center
07:57AM 23.1650 -74.5592 120° Southeast 476 548 45,000  Level Miami Center
07:58AM 23.0858 -74.4100 120° Southeast 475 547 45,000  Level Miami Center
07:59AM 23.0231 -74.2853 119° Southeast 474 545 45,000  Level Miami Center
08:00AM 22.9564 -74.1619 120° Southeast 473 544 45,000  Level Miami Center
08:01AM 22.8886 -74.0392 121° Southeast 474 545 45,000  Level Miami Center
08:02AM 22.8178 -73.9161 122° Southeast 475 547 45,000  Level Miami Center
08:03AM 22.7503 -73.7919 121° Southeast 476 548 45,000  Level Miami Center
08:04AM 22.6842 -73.6681 120° Southeast 476 548 45,000  Level Miami Center
08:05AM 22.6175 -73.5442 120° Southeast 476 548 45,000  Level Miami Center
08:06AM 22.5492 -73.4228 121° Southeast 475 547 45,000  Level Miami Center
08:07AM 22.4758 -73.2842 120° Southeast 474 545 45,000  Level Miami Center
08:08AM 22.4100 -73.1617 120° Southeast 474 545 45,000  Level Miami Center
08:09AM 22.3422 -73.0408 121° Southeast 473 544 45,000  Level Miami Center
08:10AM 22.2761 -72.9178 120° Southeast 473 544 45,000  Level Miami Center
08:11AM 22.2083 -72.7961 121° Southeast 473 544 45,000  Level Miami Center
08:12AM 22.1411 -72.6736 121° Southeast 473 544 45,000  Level Miami Center
08:13AM 22.0747 -72.5514 120° Southeast 473 544 45,000  Level Miami Center
08:15AM 21.9931 -72.4056 121° Southeast 473 544 45,000  Level Miami Center
08:16AM 21.9264 -72.2833 120° Southeast 473 544 45,000  Level Miami Center
08:17AM 21.8589 -72.1597 120° Southeast 476 548 45,000  Level Miami Center
08:18AM 21.7894 -72.0394 122° Southeast 475 547 45,000  Level Miami Center
08:19AM 21.7217 -71.9178 121° Southeast 475 547 45,000  Level Miami Center
08:20AM 21.6533 -71.7947 121° Southeast 476 548 45,000  Level Miami Center
08:21AM 21.5839 -71.6747 122° Southeast 476 548 45,000  Level Miami Center
08:22AM 21.5144 -71.5522 121° Southeast 478 550 45,000  Level Miami Center
08:23AM 21.4319 -71.4072 121° Southeast 478 550 45,000  Level Miami Center
08:24AM 21.3628 -71.2872 122° Southeast 478 550 45,000  Level Miami Center
08:25AM 21.2950 -71.1669 121° Southeast 481 554 45,000  Level Miami Center
08:26AM 21.2250 -71.0458 122° Southeast 483 556 45,000  Level Miami Center
08:27AM 21.1575 -70.9247 121° Southeast 483 556 45,000  Level Miami Center
08:28AM 21.0881 -70.8036 122° Southeast 481 554 45,000  Level Miami Center
08:29AM 21.0053 -70.6581 121° Southeast 481 554 45,000  Level Miami Center
08:30AM 20.9347 -70.5369 122° Southeast 481 554 45,000  Level Miami Center
08:31AM 20.8656 -70.4144 121° Southeast 481 554 45,000  Level Miami Center
08:32AM 20.7947 -70.2925 122° Southeast 481 554 45,000  Level Miami Center
08:33AM 20.7242 -70.1706 122° Southeast 481 554 45,000  Level Miami Center
08:34AM 20.6533 -70.0481 122° Southeast 481 554 45,000  Level Miami Center
08:35AM 20.5828 -69.9264 122° Southeast 481 554 45,000  Level Miami Center
08:36AM 20.5114 -69.8033 122° Southeast 482 555 45,000  Level Miami Center
08:37AM 20.4256 -69.6569 122° Southeast 482 555 45,000  Level Miami Center
08:38AM 20.3547 -69.5347 122° Southeast 484 557 45,000  Level Miami Center
08:39AM 20.2831 -69.4128 122° Southeast 484 557 45,000  Level Miami Center
08:40AM 20.2103 -69.2903 122° Southeast 484 557 45,000  Level Miami Center
08:41AM 20.1389 -69.1672 122° Southeast 484 557 45,000  Level Miami Center
08:42AM 20.0678 -69.0444 122° Southeast 484 557 45,000  Level Miami Center
08:43AM 19.9956 -68.9222 122° Southeast 484 557 45,000  Level Miami Center
08:44AM 19.9233 -68.8003 122° Southeast 484 557 45,000 -98 Level Miami Center
08:45AM 19.8622 -68.6722 117° Southeast 484 557 44,800 -390 Descending Miami Center
08:46AM 19.8078 -68.5036 109° East 489 563 44,200 -537 Descending Miami Center
08:47AM 19.7625 -68.3639 109° East 495 570 43,700 -488 Descending Miami Center
08:48AM 19.7172 -68.2258 109° East 495 570 43,200 -484 Descending Miami Center
08:49AM 19.6683 -68.0856 110° East 498 573 42,700 -488 Descending Miami Center
08:50AM 19.6197 -67.9461 110° East 501 577 42,200 -488 Descending Miami Center
08:51AM 19.5683 -67.8056 111° Southeast 506 582 41,700 -484 Descending Miami Center
08:52AM 19.5178 -67.6628 111° Southeast 511 588 41,200 -524 Descending Miami Center
08:54AM 19.4333 -67.4833 116° Southeast 510 587 40,600 -528 Descending San Juan Center
08:55AM 19.3833 -67.3500 112° Southeast 510 587 40,100 -645 Descending San Juan Center
08:56AM 19.3333 -67.2000 109° East 520 598 39,300 -850 Descending San Juan Center
08:57AM 19.2833 -67.0500 109° East 520 598 38,400 -1,100 Descending San Juan Center
08:58AM 19.2333 -66.9167 112° Southeast 510 587 37,100 -1,450 Descending San Juan Center
08:59AM 19.1833 -66.7833 112° Southeast 510 587 35,500 -1,750 Descending San Juan Center
09:00AM 19.1333 -66.6333 109° East 510 587 33,600 -1,950 Descending San Juan Center
09:01AM 19.0833 -66.4833 109° East 530 610 31,600 -2,033 Descending San Juan Center
09:02AM 19.0333 -66.3500 112° Southeast 520 598 29,500 -2,380 Descending San Juan Center
09:03AM 18.9833 -66.2000 109° East 510 587 26,800 -2,900 Descending San Juan Center
09:04AM 18.9333 -66.0667 112° Southeast 500 575 23,700 -2,950 Descending San Juan Center
09:05AM 18.8833 -65.9333 112° Southeast 470 541 20,900 -2,950 Descending San Juan Center
09:06AM 18.8333 -65.8167 114° Southeast 450 518 17,800 -3,000 Descending San Juan Center
09:07AM 18.7833 -65.7000 114° Southeast 420 483 14,900 -2,700 Descending San Juan Center
09:08AM 18.7500 -65.5833 107° East 400 460 12,400 -2,132 Descending San Juan Center
09:09AM 18.7167 -65.4833 109° East 390 449 10,600 -1,388 Descending San Juan Center
09:10AM 18.6500 -65.4167 137° Southeast 350 403 9,600 -1,300 Descending San Juan Center
09:11AM 18.5833 -65.3667 145° Southeast 300 345 8,000 -1,700 Descending San Juan Center
09:12AM 18.5167 -65.3167 145° Southeast 280 322 6,200 -1,750 Descending San Juan Center
09:13AM 18.4500 -65.2667 145° Southeast 280 322 4,500 -1,450 Descending San Juan Center
09:14AM 18.3833 -65.2167 145° Southeast 260 299 3,300 -950 Descending San Juan Center
09:15AM 18.3333 -65.1833 148° Southeast 220 253 2,600 -595 Descending San Juan Center
09:16AM 18.3167 -65.1333 109° East 210 242 2,100 -550 Descending San Juan Center
09:17AM 18.3167 -65.1000 90° East 140 161 1,500 -500 Descending San Juan Center
09:18AM 18.3167 -65.0667 90° East 120 138 1,100 -397 Descending San Juan Center
09:19AM 18.3333 -65.0167 71° East 140 161 700 -400 Descending San Juan Center